Time;durP1;ratioP1;P1;durP2;ratioP2;P2;SDS_P1;SDS_P2;PMS_P1;PMS_P2;Temp;Humidity;BMP_temperature;BMP_pressure;BME280_temperature;BME280_humidity;BME280_pressure;Samples;Min_cycle;Max_cycle;Signal;HPM_P1;HPM_P2
2022/04/27 00:00:42;;;;;;;9.13;8.23;;;11.00;93.00;;;;;;5077332;28;20265;-46
2022/04/27 00:03:08;;;;;;;9.33;8.53;;;11.00;93.40;;;;;;5077607;28;20514;-46
2022/04/27 00:05:34;;;;;;;9.23;8.40;;;11.00;93.20;;;;;;5073042;28;20707;-46
2022/04/27 00:08:03;;;;;;;10.70;9.70;;;11.00;93.20;;;;;;5077724;28;20185;-46
2022/04/27 00:10:31;;;;;;;10.07;9.17;;;10.90;93.30;;;;;;5075005;28;20466;-46
2022/04/27 00:12:56;;;;;;;11.33;10.33;;;10.90;93.30;;;;;;5077355;28;20458;-46
2022/04/27 00:15:25;;;;;;;10.07;9.20;;;10.90;93.30;;;;;;5057738;28;20439;-46
2022/04/27 00:17:50;;;;;;;9.70;8.90;;;10.90;93.40;;;;;;5077234;28;20612;-46
2022/04/27 00:20:16;;;;;;;10.17;9.23;;;10.90;93.50;;;;;;5077176;28;20431;-46
2022/04/27 00:22:42;;;;;;;10.90;9.60;;;10.90;93.40;;;;;;5075973;28;20289;-46
2022/04/27 00:25:08;;;;;;;11.13;10.13;;;10.90;93.50;;;;;;5076786;28;20179;-46
2022/04/27 00:27:33;;;;;;;9.53;8.73;;;10.80;93.50;;;;;;5075877;28;20186;-46
2022/04/27 00:29:59;;;;;;;12.13;10.93;;;10.80;93.40;;;;;;5077344;28;20485;-46
2022/04/27 00:32:25;;;;;;;10.53;9.63;;;10.80;93.60;;;;;;5076406;28;20508;-46
2022/04/27 00:34:51;;;;;;;12.10;10.87;;;10.80;93.60;;;;;;5077328;28;20188;-46
2022/04/27 00:37:18;;;;;;;12.27;11.07;;;10.80;93.70;;;;;;5074203;28;20475;-45
2022/04/27 00:39:44;;;;;;;12.50;11.40;;;10.70;93.70;;;;;;5077146;28;20232;-46
2022/04/27 00:42:24;;;;;;;13.17;11.87;;;10.70;93.80;;;;;;5077309;28;20946;-46
2022/04/27 00:44:50;;;;;;;12.50;11.37;;;10.70;93.80;;;;;;5077333;28;20411;-46
2022/04/27 00:47:17;;;;;;;12.87;11.57;;;10.70;93.80;;;;;;5059914;28;20436;-46
2022/04/27 00:49:51;;;;;;;11.73;10.60;;;10.70;93.80;;;;;;5080729;28;20540;-46
2022/04/27 00:52:17;;;;;;;13.37;12.10;;;10.70;93.80;;;;;;5079240;28;20434;-45
2022/04/27 00:54:48;;;;;;;11.73;10.63;;;10.70;93.70;;;;;;5080744;28;20854;-46
2022/04/27 00:57:14;;;;;;;12.50;11.30;;;10.70;93.70;;;;;;5063072;28;20797;-46
2022/04/27 00:59:40;;;;;;;11.10;10.10;;;10.60;93.60;;;;;;5080644;28;20411;-46
2022/04/27 01:02:06;;;;;;;12.53;11.33;;;10.60;93.60;;;;;;5080530;28;20429;-46
2022/04/27 01:04:36;;;;;;;13.20;12.10;;;10.60;93.60;;;;;;5080733;28;20516;-46
2022/04/27 01:07:03;;;;;;;13.87;12.57;;;10.60;93.60;;;;;;5077391;28;20571;-46
2022/04/27 01:09:30;;;;;;;13.50;12.30;;;10.60;93.60;;;;;;5080262;28;20709;-46
2022/04/27 01:12:01;;;;;;;14.60;13.23;;;10.60;93.60;;;;;;5080503;28;20431;-46
2022/04/27 01:14:27;;;;;;;16.20;14.60;;;10.60;93.70;;;;;;5080802;28;20427;-48
2022/04/27 01:16:54;;;;;;;15.67;13.90;;;10.60;93.60;;;;;;5080172;28;20474;-46
2022/04/27 01:19:24;;;;;;;16.83;15.33;;;10.60;93.80;;;;;;5080207;28;20184;-46
2022/04/27 01:21:50;;;;;;;15.60;14.10;;;10.60;93.80;;;;;;5080360;28;20412;-45
2022/04/27 01:24:19;;;;;;;17.67;14.50;;;10.60;93.80;;;;;;5080518;28;20447;-46
2022/04/27 01:26:46;;;;;;;17.77;16.00;;;10.60;93.90;;;;;;5080098;28;20438;-46
2022/04/27 01:29:14;;;;;;;16.50;14.80;;;10.50;93.90;;;;;;5077173;28;20435;-46
2022/04/27 01:31:40;;;;;;;15.60;14.17;;;10.50;94.00;;;;;;5080205;28;20740;-46
2022/04/27 01:34:05;;;;;;;16.87;15.20;;;10.50;94.00;;;;;;5078375;28;20467;-46
2022/04/27 01:36:31;;;;;;;16.73;15.13;;;10.50;94.10;;;;;;5080077;28;20228;-46
2022/04/27 01:38:57;;;;;;;17.63;15.97;;;10.50;94.00;;;;;;5079738;28;20248;-46
2022/04/27 01:41:22;;;;;;;16.47;14.70;;;10.50;93.90;;;;;;5059528;28;20290;-45
2022/04/27 01:43:48;;;;;;;17.17;15.47;;;10.50;93.90;;;;;;5080073;28;20177;-45
2022/04/27 01:46:13;;;;;;;17.10;15.47;;;10.60;94.00;;;;;;5080000;28;20206;-46
2022/04/27 01:48:40;;;;;;;17.60;15.90;;;10.60;94.00;;;;;;5080036;28;20270;-46
2022/04/27 01:51:05;;;;;;;17.57;15.87;;;10.60;94.10;;;;;;5077012;28;20273;-46
2022/04/27 01:56:15;;;;;;;18.23;16.33;;;10.60;94.20;;;;;;5079296;28;20263;-46
2022/04/27 01:58:41;;;;;;;17.97;16.07;;;10.60;94.20;;;;;;5078244;28;20424;-46
2022/04/27 02:01:11;;;;;;;18.50;16.57;;;10.60;94.20;;;;;;5062156;28;20685;-46
2022/04/27 02:03:37;;;;;;;19.23;17.33;;;10.60;94.30;;;;;;5079530;28;20745;-46
2022/04/27 02:06:02;;;;;;;16.73;15.00;;;10.60;94.40;;;;;;5077021;28;20744;-46
2022/04/27 02:08:28;;;;;;;18.10;16.30;;;10.60;94.40;;;;;;5061766;28;20420;-46
2022/04/27 02:10:54;;;;;;;20.80;18.60;;;10.60;94.50;;;;;;5077775;28;20284;-46
2022/04/27 02:13:20;;;;;;;18.47;16.57;;;10.60;94.50;;;;;;5079501;28;20250;-47
2022/04/27 02:15:46;;;;;;;20.37;18.27;;;10.60;94.60;;;;;;5078815;28;20436;-46
2022/04/27 02:18:12;;;;;;;19.07;17.17;;;10.60;94.60;;;;;;5061715;28;20662;-46
2022/04/27 02:20:37;;;;;;;19.23;17.33;;;10.50;94.60;;;;;;5078962;28;20826;-46
2022/04/27 02:23:03;;;;;;;22.67;19.13;;;10.60;94.70;;;;;;5079431;28;20193;-46
2022/04/27 02:25:29;;;;;;;20.10;18.00;;;10.60;94.60;;;;;;5078665;28;20185;-46
2022/04/27 02:27:55;;;;;;;20.17;18.07;;;10.60;94.60;;;;;;5061527;28;20190;-46
2022/04/27 02:30:21;;;;;;;20.53;18.43;;;10.60;94.60;;;;;;5076784;28;20526;-45
2022/04/27 02:32:48;;;;;;;20.47;18.37;;;10.60;94.70;;;;;;5078811;28;20412;-46
2022/04/27 02:35:14;;;;;;;20.73;18.63;;;10.60;94.80;;;;;;5079021;28;20408;-46
2022/04/27 02:37:40;;;;;;;19.73;17.63;;;10.60;94.70;;;;;;5078505;28;20893;-46
2022/04/27 02:40:08;;;;;;;23.43;19.73;;;10.60;94.80;;;;;;5078180;28;20420;-46
2022/04/27 02:42:34;;;;;;;21.07;18.90;;;10.60;94.90;;;;;;5076962;28;20230;-46
2022/04/27 02:45:00;;;;;;;20.17;18.00;;;10.60;94.90;;;;;;5061209;28;20414;-46
2022/04/27 02:47:26;;;;;;;19.13;17.13;;;10.60;94.90;;;;;;5076113;28;20461;-46
2022/04/27 02:52:35;;;;;;;18.83;16.93;;;10.50;95.00;;;;;;5076157;28;20881;-46
2022/04/27 02:55:02;;;;;;;21.00;18.90;;;10.50;95.10;;;;;;5078498;28;20427;-46
2022/04/27 02:57:27;;;;;;;20.00;17.93;;;10.50;95.00;;;;;;5078358;28;20571;-46
2022/04/27 02:59:53;;;;;;;20.33;18.23;;;10.50;95.00;;;;;;5078623;28;20511;-46
2022/04/27 03:02:19;;;;;;;19.60;17.50;;;10.60;95.20;;;;;;5075500;28;20216;-46
2022/04/27 03:04:45;;;;;;;20.80;18.57;;;10.60;95.20;;;;;;5078078;28;20185;-46
2022/04/27 03:07:10;;;;;;;21.13;18.83;;;10.60;95.10;;;;;;5076022;28;20186;-46
2022/04/27 03:09:36;;;;;;;18.53;16.53;;;10.60;95.10;;;;;;5078673;28;20495;-46
2022/04/27 03:12:02;;;;;;;19.67;17.67;;;10.60;95.20;;;;;;5076486;28;20198;-47
2022/04/27 03:14:30;;;;;;;19.47;17.47;;;10.50;95.00;;;;;;5078543;28;20284;-45
2022/04/27 03:16:56;;;;;;;18.27;16.47;;;10.50;95.10;;;;;;5060814;28;20221;-46
2022/04/27 03:19:22;;;;;;;22.07;18.50;;;10.50;95.10;;;;;;5078160;28;20518;-46
2022/04/27 03:21:48;;;;;;;19.50;17.50;;;10.50;95.10;;;;;;5078498;28;20196;-46
2022/04/27 03:24:14;;;;;;;19.20;17.20;;;10.50;95.10;;;;;;5075822;28;20195;-46
2022/04/27 03:26:40;;;;;;;18.20;16.30;;;10.50;95.10;;;;;;5077754;28;20789;-46
2022/04/27 03:29:05;;;;;;;17.53;15.73;;;10.50;95.00;;;;;;5076972;28;20440;-46
2022/04/27 03:31:32;;;;;;;19.43;17.53;;;10.50;95.00;;;;;;5059737;28;20185;-46
2022/04/27 03:33:58;;;;;;;16.53;14.83;;;10.50;95.00;;;;;;5077347;28;20590;-46
2022/04/27 03:36:24;;;;;;;17.53;15.77;;;10.50;95.00;;;;;;5077540;28;20493;-46
2022/04/27 03:38:49;;;;;;;18.00;16.00;;;10.50;95.10;;;;;;5074906;28;20284;-46
2022/04/27 03:41:22;;;;;;;17.67;15.83;;;10.50;95.10;;;;;;5078245;28;20182;-46
2022/04/27 03:43:50;;;;;;;16.10;14.50;;;10.50;95.10;;;;;;5076842;28;20509;-46
2022/04/27 03:46:16;;;;;;;16.87;15.17;;;10.50;95.10;;;;;;5077487;28;20408;-46
2022/04/27 03:48:42;;;;;;;17.67;15.77;;;10.50;95.10;;;;;;5076688;28;20889;-46
2022/04/27 03:51:08;;;;;;;15.40;13.90;;;10.50;95.10;;;;;;5059289;28;20478;-46
2022/04/27 03:53:37;;;;;;;14.90;13.47;;;10.50;95.20;;;;;;5077569;28;20452;-46
2022/04/27 03:56:02;;;;;;;15.67;14.17;;;10.50;95.20;;;;;;5074275;28;20190;-46
2022/04/27 03:58:28;;;;;;;15.40;13.90;;;10.50;95.20;;;;;;5076798;28;20462;-46
2022/04/27 04:00:54;;;;;;;17.40;15.60;;;10.50;95.20;;;;;;5076540;28;20189;-46
2022/04/27 04:03:19;;;;;;;16.33;14.40;;;10.50;95.10;;;;;;5077608;28;20287;-46
2022/04/27 04:05:45;;;;;;;14.03;12.63;;;10.50;95.10;;;;;;5076997;28;20197;-45
2022/04/27 04:08:10;;;;;;;15.23;13.67;;;10.50;95.20;;;;;;5076580;28;20442;-46
2022/04/27 04:10:36;;;;;;;15.47;13.97;;;10.50;95.20;;;;;;5074512;28;20181;-47
2022/04/27 04:13:02;;;;;;;15.67;14.10;;;10.50;95.20;;;;;;5076782;28;20239;-46
2022/04/27 04:15:27;;;;;;;16.23;14.57;;;10.50;95.30;;;;;;5074417;28;20196;-46
2022/04/27 04:17:54;;;;;;;15.40;13.90;;;10.50;95.20;;;;;;5076730;28;20354;-46
2022/04/27 04:20:19;;;;;;;15.13;13.53;;;10.50;95.20;;;;;;5076583;28;20173;-46
2022/04/27 04:22:46;;;;;;;15.27;13.77;;;10.50;95.10;;;;;;5074104;28;20432;-46
2022/04/27 04:30:40;;;;;;;16.40;14.80;;;10.40;95.10;;;;;;5053892;28;20793;-45
2022/04/27 04:33:06;;;;;;;15.53;13.03;;;10.40;95.10;;;;;;5056559;28;20413;-46
2022/04/27 04:35:33;;;;;;;15.00;13.40;;;10.40;95.10;;;;;;5071810;28;20189;-46
2022/04/27 04:37:58;;;;;;;16.83;15.00;;;10.40;95.20;;;;;;5076392;28;20717;-46
2022/04/27 04:40:25;;;;;;;16.23;14.50;;;10.50;95.20;;;;;;5072839;28;20412;-46
2022/04/27 04:42:51;;;;;;;17.60;15.80;;;10.40;95.20;;;;;;5041168;28;20527;-46
2022/04/27 04:45:16;;;;;;;14.60;13.10;;;10.40;95.60;;;;;;5075864;28;20454;-46
2022/04/27 04:47:42;;;;;;;16.33;14.63;;;10.40;95.20;;;;;;5074842;28;20193;-46
2022/04/27 04:50:09;;;;;;;14.60;13.10;;;10.50;95.30;;;;;;5057222;28;20411;-46
2022/04/27 04:52:35;;;;;;;15.77;14.10;;;10.50;95.30;;;;;;5073072;28;20630;-46
2022/04/27 04:55:01;;;;;;;14.93;13.43;;;10.50;95.30;;;;;;5057175;28;20472;-46
2022/04/27 04:57:26;;;;;;;17.70;15.93;;;10.50;95.30;;;;;;5034387;28;20221;-46
2022/04/27 04:59:52;;;;;;;15.87;14.17;;;10.60;95.30;;;;;;5053503;28;20178;-46
2022/04/27 05:02:18;;;;;;;16.17;14.57;;;10.60;95.30;;;;;;5050516;28;20182;-46
2022/04/27 05:04:44;;;;;;;15.43;13.83;;;10.60;95.30;;;;;;5070280;28;20256;-46
2022/04/27 05:07:09;;;;;;;15.87;14.20;;;10.60;95.30;;;;;;5057793;28;20311;-46
2022/04/27 05:09:35;;;;;;;16.17;14.57;;;10.60;95.30;;;;;;5056255;28;20427;-47
2022/04/27 05:12:01;;;;;;;14.90;13.40;;;10.70;95.30;;;;;;5072092;28;20655;-47
2022/04/27 05:14:26;;;;;;;16.00;14.30;;;10.70;95.30;;;;;;5072746;28;20261;-46
2022/04/27 05:16:54;;;;;;;18.63;16.63;;;10.70;95.20;;;;;;5071465;28;20237;-46
2022/04/27 05:19:21;;;;;;;16.50;14.80;;;10.80;95.20;;;;;;5073556;28;20469;-46
2022/04/27 05:21:47;;;;;;;15.80;14.13;;;10.80;95.20;;;;;;5067747;28;20440;-46
2022/04/27 05:24:13;;;;;;;17.07;15.37;;;10.80;95.10;;;;;;5053623;28;20424;-46
2022/04/27 05:26:38;;;;;;;16.63;14.93;;;10.80;95.20;;;;;;5053267;28;20611;-46
2022/04/27 05:31:54;;;;;;;17.57;15.83;;;10.90;95.20;;;;;;5053687;28;20201;-46
2022/04/27 05:34:22;;;;;;;15.77;14.03;;;10.90;95.20;;;;;;5039535;28;20582;-47
2022/04/27 05:36:50;;;;;;;16.73;15.07;;;10.90;95.20;;;;;;5058852;28;20486;-46
2022/04/27 05:39:21;;;;;;;15.97;14.30;;;11.00;95.30;;;;;;5060618;28;20756;-46
2022/04/27 05:41:51;;;;;;;15.60;13.80;;;11.00;95.20;;;;;;5077024;28;20438;-46
2022/04/27 05:44:26;;;;;;;14.77;13.17;;;11.10;95.20;;;;;;5054465;28;20424;-46
2022/04/27 05:46:53;;;;;;;14.83;13.33;;;11.20;95.10;;;;;;5056740;28;20439;-46
2022/04/27 05:49:19;;;;;;;15.27;13.60;;;11.20;95.00;;;;;;5058431;28;20530;-45
2022/04/27 05:51:45;;;;;;;14.73;13.23;;;11.30;94.90;;;;;;5076504;28;20434;-47
2022/04/27 05:54:13;;;;;;;15.53;14.03;;;11.30;94.80;;;;;;5076724;28;20427;-47
2022/04/27 05:56:43;;;;;;;14.93;13.43;;;11.30;94.80;;;;;;5078148;28;20374;-47
2022/04/27 05:59:12;;;;;;;15.10;13.50;;;11.40;94.70;;;;;;5059940;28;20892;-47
2022/04/27 06:01:38;;;;;;;15.07;13.57;;;11.40;94.70;;;;;;5073592;28;20524;-44
2022/04/27 06:04:06;;;;;;;15.43;13.87;;;11.40;94.60;;;;;;5059243;28;20521;-45
2022/04/27 06:06:37;;;;;;;13.87;12.47;;;11.40;94.60;;;;;;5075072;28;20435;-45
2022/04/27 06:09:03;;;;;;;14.27;12.87;;;11.50;94.60;;;;;;5077753;28;20505;-45
2022/04/27 06:11:29;;;;;;;14.37;12.97;;;11.50;94.50;;;;;;5076361;28;20428;-45
2022/04/27 06:13:54;;;;;;;14.53;13.13;;;11.50;94.50;;;;;;5077641;28;20471;-44
2022/04/27 06:16:22;;;;;;;14.90;13.27;;;11.60;94.50;;;;;;5077642;28;20466;-45
2022/04/27 06:18:48;;;;;;;14.93;13.43;;;11.60;94.40;;;;;;5076002;28;20198;-45
2022/04/27 06:21:17;;;;;;;14.80;13.30;;;11.60;94.30;;;;;;5078698;28;20430;-46
2022/04/27 06:23:49;;;;;;;15.50;13.60;;;11.60;94.30;;;;;;5076858;28;20189;-44
2022/04/27 06:26:24;;;;;;;15.00;12.60;;;11.70;94.30;;;;;;5060390;28;20869;-45
2022/04/27 06:29:02;;;;;;;14.43;12.93;;;11.70;94.20;;;;;;5060543;28;20983;-46
2022/04/27 06:31:58;;;;;;;14.73;13.23;;;11.80;94.20;;;;;;5074883;28;20435;-46
2022/04/27 06:41:20;;;;;;;12.73;11.37;;;12.20;94.10;;;;;;5057287;28;20570;-46
2022/04/27 06:43:47;;;;;;;11.73;10.60;;;12.30;93.60;;;;;;5057784;28;20437;-46
2022/04/27 06:46:13;;;;;;;13.77;12.47;;;12.40;93.50;;;;;;5057801;28;20806;-45
2022/04/27 06:48:39;;;;;;;13.27;11.97;;;12.50;93.40;;;;;;5056904;28;20760;-46
2022/04/27 06:51:05;;;;;;;12.97;11.70;;;12.60;93.30;;;;;;5057597;28;20428;-46
2022/04/27 06:53:30;;;;;;;15.47;13.83;;;12.70;93.10;;;;;;5067551;28;20551;-46
2022/04/27 06:55:56;;;;;;;14.67;13.20;;;12.70;92.90;;;;;;5075092;28;20822;-46
2022/04/27 06:58:22;;;;;;;12.37;11.20;;;12.80;92.70;;;;;;5074914;28;20236;-46
2022/04/27 07:00:47;;;;;;;12.70;11.40;;;12.90;92.60;;;;;;5075095;28;20178;-46
2022/04/27 07:03:13;;;;;;;13.53;11.47;;;13.00;92.50;;;;;;5074365;28;20254;-43
2022/04/27 07:05:38;;;;;;;14.13;12.73;;;13.10;92.40;;;;;;5075976;28;20174;-42
2022/04/27 07:08:05;;;;;;;14.17;12.83;;;13.10;92.20;;;;;;5075376;28;20194;-42
2022/04/27 07:10:36;;;;;;;14.10;12.67;;;13.10;92.10;;;;;;5058145;28;20643;-43
2022/04/27 07:13:03;;;;;;;14.27;12.87;;;13.10;92.00;;;;;;5075264;28;20837;-42
2022/04/27 07:15:29;;;;;;;13.60;12.30;;;13.00;92.00;;;;;;5071773;28;20508;-42
2022/04/27 07:17:54;;;;;;;13.77;12.33;;;13.00;92.10;;;;;;5071015;28;21228;-42
2022/04/27 07:20:20;;;;;;;15.70;14.10;;;12.90;92.10;;;;;;5073971;28;20267;-45
2022/04/27 07:22:45;;;;;;;14.37;12.97;;;12.90;92.20;;;;;;5071842;28;20432;-43
2022/04/27 07:25:12;;;;;;;14.53;13.10;;;12.90;92.30;;;;;;5074377;28;20177;-45
2022/04/27 07:27:38;;;;;;;13.40;12.10;;;13.00;92.40;;;;;;5074074;28;20577;-47
2022/04/27 07:30:04;;;;;;;13.27;11.93;;;13.10;92.30;;;;;;5072450;28;20538;-46
2022/04/27 07:32:30;;;;;;;14.03;12.63;;;13.30;92.30;;;;;;5065073;28;20534;-48
2022/04/27 07:34:56;;;;;;;6.50;5.90;;;13.50;92.10;;;;;;5053513;28;20515;-43
2022/04/27 07:37:22;;;;;;;5.63;4.77;;;13.80;92.50;;;;;;5034188;28;20276;-46
2022/04/27 07:39:47;;;;;;;6.00;5.50;;;14.20;92.80;;;;;;5059189;28;20436;-44
2022/04/27 07:42:13;;;;;;;5.77;5.23;;;14.60;92.30;;;;;;5073834;28;20280;-46
2022/04/27 07:44:39;;;;;;;6.33;5.73;;;14.90;91.60;;;;;;5075750;28;20852;-45
2022/04/27 07:47:05;;;;;;;8.10;7.30;;;15.20;91.00;;;;;;5074685;28;20251;-47
2022/04/27 07:49:30;;;;;;;7.30;6.60;;;15.40;90.40;;;;;;5074064;28;20216;-44
2022/04/27 07:51:57;;;;;;;8.20;7.40;;;15.40;89.80;;;;;;5068212;28;20738;-45
2022/04/27 07:54:22;;;;;;;8.60;7.80;;;15.50;88.90;;;;;;5055503;28;20236;-45
2022/04/27 07:56:48;;;;;;;8.40;7.67;;;15.60;88.20;;;;;;5055965;28;20508;-46
2022/04/27 07:59:14;;;;;;;8.90;8.10;;;15.60;88.20;;;;;;5071591;28;20262;-45
2022/04/27 08:01:40;;;;;;;8.00;7.20;;;15.70;87.00;;;;;;5074871;28;20710;-45
2022/04/27 08:04:06;;;;;;;9.17;8.27;;;15.70;86.50;;;;;;5057294;28;20225;-46
2022/04/27 08:06:32;;;;;;;8.73;7.83;;;15.70;86.10;;;;;;5076480;28;20247;-47
2022/04/27 08:08:57;;;;;;;8.80;8.00;;;15.70;85.80;;;;;;5075619;28;20440;-44
2022/04/27 08:11:23;;;;;;;8.53;7.73;;;15.70;85.60;;;;;;5074238;28;20763;-46
2022/04/27 08:13:49;;;;;;;8.40;7.60;;;15.70;85.20;;;;;;5074246;28;20188;-46
2022/04/27 08:16:14;;;;;;;8.20;7.50;;;15.80;85.10;;;;;;5075299;28;20207;-45
2022/04/27 08:18:40;;;;;;;8.13;7.43;;;15.80;84.90;;;;;;5073122;28;20232;-45
2022/04/27 08:21:15;;;;;;;7.80;7.10;;;16.10;84.60;;;;;;5074358;28;20632;-47
2022/04/27 08:23:42;;;;;;;8.27;7.47;;;16.40;83.60;;;;;;5057897;28;20207;-45
2022/04/27 08:26:10;;;;;;;7.43;6.83;;;16.70;82.70;;;;;;5074474;28;20412;-49
2022/04/27 08:28:39;;;;;;;7.23;6.57;;;16.90;81.80;;;;;;5056445;28;20452;-48
2022/04/27 08:31:06;;;;;;;7.17;6.57;;;17.00;81.00;;;;;;5075138;28;20447;-44
2022/04/27 08:33:32;;;;;;;7.10;6.30;;;17.10;80.30;;;;;;5070756;28;20444;-47
2022/04/27 08:35:58;;;;;;;7.00;6.40;;;17.30;79.80;;;;;;5073721;28;20575;-46
2022/04/27 08:38:24;;;;;;;7.60;6.90;;;17.40;79.20;;;;;;5052085;28;20480;-47
2022/04/27 08:40:50;;;;;;;7.10;6.33;;;17.50;78.50;;;;;;5073951;28;20691;-48
2022/04/27 08:43:16;;;;;;;6.60;6.00;;;17.60;77.90;;;;;;5072652;28;20437;-47
2022/04/27 08:45:44;;;;;;;7.33;6.63;;;17.60;77.30;;;;;;5074893;28;20178;-44
2022/04/27 08:48:11;;;;;;;6.60;6.00;;;17.60;77.00;;;;;;5073544;28;20727;-45
2022/04/27 08:50:37;;;;;;;6.97;6.37;;;17.70;76.70;;;;;;5075072;28;20421;-47
2022/04/27 08:53:03;;;;;;;5.90;5.40;;;17.80;76.40;;;;;;5074523;28;20480;-45
2022/04/27 08:55:29;;;;;;;5.87;5.37;;;17.80;75.80;;;;;;5058823;28;20455;-48
2022/04/27 08:58:06;;;;;;;5.13;4.73;;;17.90;75.40;;;;;;5074943;28;20522;-44
2022/04/27 09:00:32;;;;;;;4.70;4.30;;;18.00;75.10;;;;;;5075228;28;20181;-46
2022/04/27 09:03:25;;;;;;;5.13;4.70;;;18.10;74.80;;;;;;5073660;28;20465;-46
2022/04/27 09:05:52;;;;;;;5.13;4.73;;;18.20;74.20;;;;;;5066798;28;20716;-47
2022/04/27 09:08:18;;;;;;;4.67;4.13;;;18.20;73.60;;;;;;5057666;28;20785;-46
2022/04/27 09:10:44;;;;;;;4.80;4.40;;;18.20;73.20;;;;;;5077469;28;20467;-46
2022/04/27 09:13:10;;;;;;;4.93;4.53;;;18.20;72.90;;;;;;5077655;28;20192;-46
2022/04/27 09:15:36;;;;;;;4.67;4.27;;;18.20;72.70;;;;;;5057527;28;20833;-48
2022/04/27 09:20:54;;;;;;;4.73;4.30;;;18.30;72.20;;;;;;5074983;28;20434;-45
2022/04/27 09:23:37;;;;;;;5.80;5.27;;;18.50;72.00;;;;;;5077620;28;20452;-45
2022/04/27 09:26:19;;;;;;;6.03;5.43;;;18.60;71.30;;;;;;5073428;28;20423;-46
2022/04/27 09:28:55;;;;;;;6.77;6.17;;;18.70;70.60;;;;;;5076108;28;20426;-46
2022/04/27 09:31:31;;;;;;;6.83;6.23;;;18.90;70.30;;;;;;5076174;28;20445;-45
2022/04/27 09:34:27;;;;;;;6.97;6.37;;;19.40;70.20;;;;;;5077138;28;20423;-44
2022/04/27 09:36:54;;;;;;;6.33;5.73;;;19.90;69.30;;;;;;5078250;28;20563;-45
2022/04/27 09:39:26;;;;;;;6.63;6.03;;;20.40;68.00;;;;;;5059723;28;20425;-46
2022/04/27 09:41:53;;;;;;;5.70;5.20;;;21.00;66.30;;;;;;5059832;28;20561;-45
2022/04/27 09:44:35;;;;;;;6.03;5.50;;;21.50;64.80;;;;;;5060066;28;20515;-45
2022/04/27 09:47:04;;;;;;;5.20;4.70;;;22.10;61.40;;;;;;5078175;28;20713;-44
2022/04/27 09:49:35;;;;;;;5.67;5.17;;;22.70;59.10;;;;;;5057347;28;20582;-47
2022/04/27 09:52:03;;;;;;;4.93;4.50;;;23.20;57.40;;;;;;5078545;28;20839;-44
2022/04/27 09:54:30;;;;;;;6.40;5.83;;;23.80;55.60;;;;;;5077303;28;20728;-45
2022/04/27 09:56:59;;;;;;;6.53;5.93;;;24.00;53.00;;;;;;5076064;28;20471;-46
2022/04/27 09:59:30;;;;;;;8.50;7.70;;;24.20;51.80;;;;;;5060560;28;20710;-46
2022/04/27 10:02:01;;;;;;;6.73;6.10;;;24.20;49.00;;;;;;5077240;28;20808;-44
2022/04/27 10:04:28;;;;;;;5.73;5.30;;;24.40;49.00;;;;;;5041939;28;20815;-46
2022/04/27 10:07:00;;;;;;;5.10;4.70;;;24.70;47.90;;;;;;5041811;28;20429;-45
2022/04/27 10:09:28;;;;;;;5.20;4.80;;;24.90;47.60;;;;;;5076978;28;20445;-47
2022/04/27 10:11:55;;;;;;;4.60;4.20;;;25.00;47.30;;;;;;5076776;28;20477;-46
2022/04/27 10:14:22;;;;;;;4.60;4.13;;;25.10;46.80;;;;;;5073215;28;20431;-47
2022/04/27 10:16:49;;;;;;;4.83;4.43;;;25.10;46.90;;;;;;5073576;28;20461;-45
2022/04/27 10:19:17;;;;;;;4.93;4.53;;;25.00;46.80;;;;;;5056552;28;20417;-45
2022/04/27 10:21:57;;;;;;;4.43;4.00;;;25.00;46.60;;;;;;5058066;28;20518;-46
2022/04/27 10:24:37;;;;;;;4.93;4.53;;;24.90;46.40;;;;;;5072576;28;20424;-45
2022/04/27 10:27:20;;;;;;;4.80;3.67;;;24.80;46.20;;;;;;5073949;28;20855;-45
2022/04/27 10:30:10;;;;;;;4.27;3.97;;;24.60;46.10;;;;;;5073598;28;20524;-46
2022/04/27 10:32:51;;;;;;;4.90;4.50;;;24.60;46.00;;;;;;5046143;28;20447;-45
2022/04/27 10:35:19;;;;;;;4.23;3.90;;;24.80;45.80;;;;;;5074592;28;20494;-46
2022/04/27 10:37:47;;;;;;;4.20;3.80;;;24.90;45.30;;;;;;5073297;28;20477;-48
2022/04/27 10:40:32;;;;;;;5.00;4.50;;;24.90;45.20;;;;;;5057893;28;20409;-47
2022/04/27 10:43:07;;;;;;;4.77;4.37;;;25.00;45.20;;;;;;5058728;28;20457;-46
2022/04/27 10:45:40;;;;;;;4.00;3.70;;;25.10;45.10;;;;;;5078088;28;20404;-45
2022/04/27 10:48:08;;;;;;;3.87;3.57;;;25.20;45.10;;;;;;5073080;28;20448;-47
2022/04/27 10:50:35;;;;;;;5.30;4.90;;;25.30;44.80;;;;;;5075679;28;20440;-45
2022/04/27 10:53:19;;;;;;;3.90;3.50;;;25.00;43.90;;;;;;5057231;28;20454;-46
2022/04/27 10:55:51;;;;;;;4.87;4.47;;;24.40;43.70;;;;;;5072557;28;20519;-47
2022/04/27 10:58:18;;;;;;;4.40;4.00;;;23.90;43.80;;;;;;5069510;28;21043;-48
2022/04/27 11:01:01;;;;;;;4.40;4.00;;;23.50;43.80;;;;;;5070904;28;20501;-42
2022/04/27 11:03:27;;;;;;;4.50;4.10;;;23.10;44.30;;;;;;5075059;28;20404;-44
2022/04/27 11:05:57;;;;;;;5.00;4.30;;;22.90;45.00;;;;;;5055498;28;20498;-45
2022/04/27 11:08:43;;;;;;;4.40;4.00;;;22.70;45.40;;;;;;5073111;28;20471;-47
2022/04/27 11:11:18;;;;;;;4.30;3.90;;;22.60;45.60;;;;;;5057677;28;20456;-44
2022/04/27 11:13:45;;;;;;;3.67;3.37;;;22.50;45.70;;;;;;5070522;28;20867;-44
2022/04/27 11:16:12;;;;;;;4.47;4.10;;;22.30;45.70;;;;;;5066353;28;20759;-44
2022/04/27 11:18:55;;;;;;;4.93;4.53;;;22.10;45.70;;;;;;5068556;28;20471;-44
2022/04/27 11:21:22;;;;;;;5.70;3.83;;;21.80;45.70;;;;;;5073382;28;20519;-44
2022/04/27 11:23:48;;;;;;;4.20;3.90;;;21.50;45.80;;;;;;5074409;28;21113;-46
2022/04/27 11:26:15;;;;;;;4.30;3.90;;;21.30;46.10;;;;;;5074127;28;20462;-45
2022/04/27 11:28:45;;;;;;;4.07;3.77;;;21.10;46.40;;;;;;5072138;28;20583;-46
2022/04/27 11:31:13;;;;;;;4.00;3.60;;;20.90;46.80;;;;;;5072445;28;20426;-45
2022/04/27 11:33:42;;;;;;;4.07;3.77;;;20.70;47.00;;;;;;5071884;28;20468;-47
2022/04/27 11:36:20;;;;;;;3.50;3.20;;;20.60;47.30;;;;;;5055593;28;20443;-43
2022/04/27 11:38:46;;;;;;;3.70;3.33;;;20.60;47.70;;;;;;5071963;28;20459;-47
2022/04/27 11:41:20;;;;;;;4.00;3.70;;;20.60;47.90;;;;;;5071596;28;20420;-47
2022/04/27 11:43:47;;;;;;;4.13;3.73;;;20.70;48.10;;;;;;5071766;28;20217;-45
2022/04/27 11:46:12;;;;;;;4.57;4.07;;;20.80;48.30;;;;;;5052975;28;20422;-45
2022/04/27 11:48:39;;;;;;;4.37;3.97;;;20.80;48.20;;;;;;5052442;28;20722;-48
2022/04/27 11:51:08;;;;;;;4.50;4.10;;;20.80;48.00;;;;;;5053820;28;20185;-44
2022/04/27 11:53:47;;;;;;;4.03;3.73;;;20.80;47.70;;;;;;5069857;28;20815;-47
2022/04/27 11:56:18;;;;;;;3.30;3.00;;;20.80;47.70;;;;;;5074046;28;20476;-45
2022/04/27 11:58:48;;;;;;;3.77;3.47;;;20.90;47.90;;;;;;5039100;28;20490;-45
2022/04/27 12:01:22;;;;;;;3.70;3.40;;;21.00;47.90;;;;;;5054600;28;20513;-48
2022/04/27 12:03:51;;;;;;;4.27;3.90;;;21.30;47.90;;;;;;5056232;28;20567;-45
2022/04/27 12:06:26;;;;;;;3.60;3.30;;;21.40;47.10;;;;;;5041597;28;20436;-46
2022/04/27 12:08:53;;;;;;;4.23;3.90;;;21.60;46.80;;;;;;5058849;28;20442;-44
2022/04/27 12:11:31;;;;;;;4.13;3.83;;;21.60;46.60;;;;;;5072925;28;20594;-44
2022/04/27 12:13:58;;;;;;;4.00;3.70;;;21.80;46.40;;;;;;5074692;28;20850;-46
2022/04/27 12:16:34;;;;;;;3.80;3.50;;;22.10;46.60;;;;;;5070374;28;20448;-44
2022/04/27 12:19:01;;;;;;;4.07;3.77;;;22.50;46.70;;;;;;5075480;28;20432;-45
2022/04/27 12:21:28;;;;;;;3.50;3.20;;;22.70;45.50;;;;;;5073751;28;20418;-44
2022/04/27 12:23:56;;;;;;;4.20;3.80;;;22.80;45.20;;;;;;5074495;28;20831;-45
2022/04/27 12:26:23;;;;;;;3.33;3.03;;;23.10;45.00;;;;;;5054497;28;20440;-44
2022/04/27 12:28:49;;;;;;;3.10;2.90;;;24.00;45.10;;;;;;5074030;28;20436;-48
2022/04/27 12:31:17;;;;;;;3.07;2.87;;;25.20;44.40;;;;;;5074858;28;20811;-44
2022/04/27 12:33:50;;;;;;;4.63;3.10;;;26.50;43.50;;;;;;5073592;28;20419;-47
2022/04/27 12:39:20;;;;;;;3.47;3.17;;;28.90;40.60;;;;;;5071822;28;20458;-45
2022/04/27 12:41:47;;;;;;;3.60;3.30;;;29.70;38.90;;;;;;5072645;28;20858;-46
2022/04/27 12:44:18;;;;;;;3.07;2.77;;;30.20;38.20;;;;;;5078273;28;20415;-48
2022/04/27 12:47:03;;;;;;;2.60;2.40;;;30.60;37.60;;;;;;5076178;28;20419;-47
2022/04/27 12:49:40;;;;;;;3.10;2.80;;;30.80;36.90;;;;;;5078780;28;20404;-47
2022/04/27 12:52:23;;;;;;;2.90;2.70;;;31.00;35.70;;;;;;5073637;28;20452;-48
2022/04/27 12:54:50;;;;;;;3.20;3.00;;;31.20;35.30;;;;;;5079885;28;20393;-43
2022/04/27 12:57:16;;;;;;;2.83;2.63;;;30.80;34.50;;;;;;5077800;28;20468;-45
2022/04/27 13:00:04;;;;;;;2.63;2.43;;;30.20;34.50;;;;;;5078418;28;20440;-48
2022/04/27 13:02:30;;;;;;;2.90;2.70;;;29.40;34.80;;;;;;5075903;28;20404;-47
2022/04/27 13:04:56;;;;;;;3.07;2.77;;;29.10;35.10;;;;;;5076517;28;20379;-44
2022/04/27 13:07:22;;;;;;;2.40;2.20;;;29.00;35.30;;;;;;5073894;28;20583;-44